KMYF/MYF METAR and TAF weather

Enter ICAO airport designator
Station Type Date Time Source
KMYF METAR 2022/01/26 19:53 UTC NOAA

KMYF 261953Z 27005KT 10SM CLR 21/04 A3009 RMK AO2 SLP187 T02110039


Station Type Date Time Source
KMYF Decoded METAR 2022/01/26 19:53 UTC NOAA

SAN DIEGO MONTGOMERY FIELD, CA, United States (KMYF) 32-49N 117-08W 136M
Jan 26, 2022 - 02:53 PM EST / 2022.01.26 1953 UTC
Wind: from the W (270 degrees) at 6 MPH (5 KT):0
Visibility: 10 mile(s):0
Sky conditions: clear
Temperature: 70.0 F (21.1 C)
Dew Point: 39.0 F (3.9 C)
Relative Humidity: 32%
Pressure (altimeter): 30.09 in. Hg (1018 hPa)
ob: KMYF 261953Z 27005KT 10SM CLR 21/04 A3009 RMK AO2 SLP187 T02110039
cycle: 20

Station Type Date Time Source
KMYF TAF UTC NOAA

Error!

Example: see airport list